METAR Data
IDs: Format: Raw Decoded Include TAF

Data at: 0819 UTC 23 Sep 2018

KFYV 230753Z AUTO 06004KT 10SM OVC013 17/16 A3004 RMK AO2 SLP163 T01720156
KFYV 230653Z AUTO VRB04KT 10SM OVC014 17/16 A3004 RMK AO2 SLP163 T01720156
KFYV 230553Z AUTO 00000KT 10SM OVC014 17/16 A3005 RMK AO2 SLP170 T01720156 10172 20161 401830150 58007
KFYV 230453Z AUTO 06003KT 10SM OVC013 17/16 A3006 RMK AO2 SLP171 T01720156
KFYV 230353Z AUTO 06003KT 10SM OVC010 17/16 A3008 RMK AO2 CIG 008V012 SLP178 T01670156
KFYV 230351Z AUTO 07003KT 10SM OVC010 17/16 A3007 RMK AO2 CIG 008V012
KFYV 230253Z AUTO 05006KT 10SM OVC008 17/16 A3008 RMK AO2 SLP179 T01670156 50002
KFYV 230153Z 06004KT 10SM OVC008 16/16 A3008 RMK AO2 SLP181 T01610156
KFYV 230053Z 08010KT 10SM OVC009 16/15 A3007 RMK AO2 SLP176 T01610150
KFYV 222353Z VRB05KT 10SM OVC008 16/15 A3007 RMK AO2 SLP177 T01610150 10183 20161 58002
KFYV 222336Z 04005KT 10SM OVC008 17/15 A3009 RMK AO2 T01670150
KFYV 222253Z 07005KT 10SM OVC012 17/15 A3007 RMK AO2 SLP175 T01720150
KFYV 222153Z 02003KT 10SM OVC014 17/15 A3009 RMK AO2 SLP182 T01720150
KFYV 222138Z VRB04KT 10SM OVC014 17/15 A3008 RMK AO2 T01720150
KFYV 222053Z 08009KT 10SM OVC016 18/15 A3008 RMK AO2 SLP178 T01780150 56021
KFYV 221953Z 06005KT 10SM OVC016 18/15 A3010 RMK AO2 SLP185 T01780150
KFYV 221853Z 07007KT 10SM OVC015 18/15 A3012 RMK AO2 SLP192 T01780150
KFYV 221841Z 04006KT 10SM OVC015 18/15 A3012 RMK AO2 T01780150
KFYV 221753Z 05009KT 10SM OVC014 17/14 A3014 RMK AO2 SLP200 60000 T01720144 10178 20150 58006
KFYV 221653Z 08010G18KT 10SM OVC013 17/14 A3016 RMK AO2 SLP204 T01720144
KFYV 221553Z VRB05KT 10SM OVC011 16/14 A3017 RMK AO2 SLP209 T01560144
KFYV 221453Z 07009KT 10SM OVC009 16/14 A3016 RMK AO2 CIG 006V012 SLP207 60000 T01560144 51006
KFYV 221353Z VRB04KT 10SM OVC015 15/14 A3016 RMK AO2 SLP205 T01500139
KFYV 221253Z VRB04KT 9SM FEW007 OVC015 15/14 A3016 RMK AO2 RAE08 SLP204 P0000 T01500144
KFYV 221153Z VRB05KT 10SM -RA OVC012 15/15 A3014 RMK AO2 SLP199 P0005 60075 70187 T01500150 10167 20150 55003
KFYV 221053Z 06005G17KT 10SM -RA FEW010 OVC055 16/14 A3014 RMK AO2 SLP197 P0010 T01560144
KFYV 221000Z AUTO 09010KT 3SM RA BR BKN041 OVC048 16/15 A3013 RMK AO2 P0002 T01560150
KFYV 220953Z AUTO 10007KT 2 1/2SM RA BR OVC039 15/15 A3013 RMK AO2 SLP194 P0017 T01500150
KFYV 220932Z AUTO 08008KT 4SM RA BR SCT011 OVC042 15/15 A3014 RMK AO2 P0009 T01500150
KFYV 220921Z AUTO 00000KT 3SM RA BR BKN011 OVC040 15/15 A3015 RMK AO2 P0006 T01500150
KFYV 220853Z AUTO VRB03KT 6SM RA BR BKN009 OVC013 16/15 A3015 RMK AO2 CIG 007V011 SLP201 P0008 60043 T01560150 55003
KFYV 220842Z AUTO VRB04KT 7SM RA BKN009 BKN013 OVC048 15/15 A3015 RMK AO2 P0006 T01500150
KFYV 220820Z AUTO 06006G16KT 7SM RA FEW005 BKN015 OVC050 16/15 A3014 RMK AO2 P0003 T01560150
KFYV 220753Z AUTO VRB04KT 8SM -RA BKN007 OVC012 16/16 A3014 RMK AO2 CIG 005V010 SLP197 P0013 T01610161
KFYV 220749Z AUTO VRB03KT 7SM -RA BKN007 OVC012 16/16 A3014 RMK AO2 CIG 005V010 P0013
KFYV 220724Z AUTO VRB06KT 6SM RA BR BKN010 OVC055 16/16 A3015 RMK AO2 P0009 T01610161
KFYV 220704Z AUTO VRB04KT 3SM +RA BR FEW007 BKN044 OVC060 16/16 A3015 RMK AO2 P0005 T01610161
KFYV 220653Z AUTO 05006KT 4SM RA BR BKN007 BKN012 OVC039 16/16 A3016 RMK AO2 SLP202 P0022 T01610161
KFYV 220643Z AUTO 04006KT 3SM +RA BR BKN007 OVC041 16/16 A3016 RMK AO2 P0020 T01610161
KFYV 220619Z AUTO 02008KT 340V050 4SM RA BR SCT007 SCT019 OVC043 17/16 A3015 RMK AO2 P0010 T01670161
KFYV 220553Z AUTO 03007KT 3SM +RA BR SCT009 BKN015 OVC033 17/17 A3016 RMK AO2 SLP204 P0026 60081 T01720167 10206 20172 402560172 54000
KFYV 220548Z AUTO 03006KT 3SM RA BR SCT009 BKN015 OVC026 17/17 A3017 RMK AO2 P0023
KFYV 220533Z AUTO VRB04KT 3SM +RA BR FEW007 BKN014 OVC023 17/17 A3017 RMK AO2 P0018 T01720167
KFYV 220525Z AUTO VRB06KT 2 1/2SM +RA BR SCT007 BKN014 OVC045 17/17 A3017 RMK AO2 P0014 T01720172
KFYV 220518Z AUTO VRB05KT 2 1/2SM +RA BR BKN007 BKN012 OVC055 18/17 A3017 RMK AO2 P0011 T01780172
KFYV 220453Z AUTO 01004KT 3SM +RA BR BKN006 BKN010 OVC055 18/17 A3016 RMK AO2 SLP202 P0013 T01780172
KFYV 220401Z AUTO VRB04KT 5SM RA BR BKN009 OVC013 18/17 A3017 RMK AO2 CIG 005V010 P0001 T01780172
KFYV 220353Z AUTO 03004KT 4SM RA BR SCT008 BKN013 OVC050 18/17 A3016 RMK AO2 SLP203 P0012 T01780172
KFYV 220343Z AUTO VRB04KT 3SM RA BR SCT008 BKN013 OVC055 17/17 A3016 RMK AO2 P0010 T01720172
KFYV 220326Z AUTO 00000KT 6SM -RA BR FEW008 BKN060 OVC080 17/17 A3016 RMK AO2 P0006 T01720172
KFYV 220253Z AUTO 04006KT 4SM +RA BR FEW055 OVC075 17/17 A3016 RMK AO2 SLP201 P0018 60030 T01720172 51010
KFYV 220204Z 04004KT 5SM RA BR FEW009 BKN060 OVC075 18/17 A3015 RMK AO2 P0001 T01830172
KFYV 220153Z 03007KT 5SM RA BR SCT010 BKN055 OVC065 18/18 A3015 RMK AO2 SLP199 P0009 T01830178
KFYV 220101Z VRB05KT 4SM RA BR FEW007 BKN012 OVC048 19/19 A3013 RMK AO2 P0001 T01940189
KFYV 220053Z 02004KT 5SM RA BR SCT011 BKN048 OVC070 20/19 A3013 RMK AO2 SLP191 P0003 T02000189
KFYV 220043Z VRB04KT 7SM -RA SCT010 BKN048 OVC110 20/19 A3013 RMK AO2 P0002 T02000194
KFYV 220004Z VRB05KT 9SM -RA BKN013 BKN024 OVC080 20/20 A3012 RMK AO2 P0001 T02000200
KFYV 212353Z 04003KT 10SM -RA SCT015 BKN075 OVC100 20/19 A3013 RMK AO2 SLP190 P0002 60023 T02000194 10228 20200 53008
KFYV 212310Z 06005KT 7SM -RA SCT024 BKN045 OVC060 21/20 A3012 RMK AO2 P0000 T02060200
KFYV 212253Z VRB04KT 8SM -RA FEW012 BKN021 OVC055 21/20 A3011 RMK AO2 SLP186 P0006 T02060200
KFYV 212209Z VRB04KT 5SM RA BR SCT009 BKN033 OVC060 21/21 A3010 RMK AO2 P0002 T02110206
KFYV 212159Z VRB06KT 4SM RA BR SCT007 BKN013 OVC065 21/21 A3010 RMK AO2 P0001 T02110211
KFYV 212153Z 05005KT 5SM -RA BR SCT012 BKN033 OVC060 22/21 A3010 RMK AO2 SLP180 P0003 T02170206
KFYV 212053Z 04004KT 8SM -RA SCT048 OVC075 22/21 A3010 RMK AO2 SLP180 P0003 60012 T02170206 55002